sensor_id;sensor_type;location;lat;lon;timestamp;P1;durP1;ratioP1;P2;durP2;ratioP2
317;SDS011;146;53.448;10.228;2022-12-07T00:01:21;14.27;;;12.30;;
317;SDS011;146;53.448;10.228;2022-12-07T00:03:49;17.33;;;13.90;;
317;SDS011;146;53.448;10.228;2022-12-07T00:06:19;19.27;;;12.30;;
317;SDS011;146;53.448;10.228;2022-12-07T00:08:46;17.77;;;13.80;;
317;SDS011;146;53.448;10.228;2022-12-07T00:11:14;15.03;;;12.30;;
317;SDS011;146;53.448;10.228;2022-12-07T00:13:44;15.40;;;12.10;;
317;SDS011;146;53.448;10.228;2022-12-07T00:16:12;15.17;;;11.97;;
317;SDS011;146;53.448;10.228;2022-12-07T00:18:41;16.83;;;12.07;;
317;SDS011;146;53.448;10.228;2022-12-07T00:21:09;15.80;;;14.20;;
317;SDS011;146;53.448;10.228;2022-12-07T00:23:37;16.37;;;13.03;;
317;SDS011;146;53.448;10.228;2022-12-07T00:26:05;16.83;;;13.57;;
317;SDS011;146;53.448;10.228;2022-12-07T00:28:32;16.23;;;13.17;;
317;SDS011;146;53.448;10.228;2022-12-07T00:31:02;16.47;;;14.57;;
317;SDS011;146;53.448;10.228;2022-12-07T00:33:31;17.80;;;13.07;;
317;SDS011;146;53.448;10.228;2022-12-07T00:35:58;16.20;;;13.10;;
317;SDS011;146;53.448;10.228;2022-12-07T00:38:27;19.83;;;13.37;;
317;SDS011;146;53.448;10.228;2022-12-07T00:40:55;20.43;;;13.40;;
317;SDS011;146;53.448;10.228;2022-12-07T00:43:22;17.80;;;14.43;;
317;SDS011;146;53.448;10.228;2022-12-07T00:45:49;19.13;;;14.60;;
317;SDS011;146;53.448;10.228;2022-12-07T00:48:17;17.73;;;13.57;;
317;SDS011;146;53.448;10.228;2022-12-07T00:50:44;17.63;;;14.23;;
317;SDS011;146;53.448;10.228;2022-12-07T00:53:11;16.63;;;12.70;;
317;SDS011;146;53.448;10.228;2022-12-07T00:55:39;16.30;;;12.60;;
317;SDS011;146;53.448;10.228;2022-12-07T00:58:05;20.37;;;14.40;;
317;SDS011;146;53.448;10.228;2022-12-07T01:00:32;16.90;;;13.20;;
317;SDS011;146;53.448;10.228;2022-12-07T01:03:01;19.23;;;12.90;;
317;SDS011;146;53.448;10.228;2022-12-07T01:05:29;14.60;;;11.80;;
317;SDS011;146;53.448;10.228;2022-12-07T01:07:56;13.87;;;11.00;;
317;SDS011;146;53.448;10.228;2022-12-07T01:10:23;12.57;;;11.27;;
317;SDS011;146;53.448;10.228;2022-12-07T01:12:49;14.33;;;12.20;;
317;SDS011;146;53.448;10.228;2022-12-07T01:15:16;14.90;;;11.20;;
317;SDS011;146;53.448;10.228;2022-12-07T01:17:43;12.27;;;10.97;;
317;SDS011;146;53.448;10.228;2022-12-07T01:20:11;17.13;;;12.47;;
317;SDS011;146;53.448;10.228;2022-12-07T01:22:40;12.37;;;11.00;;
317;SDS011;146;53.448;10.228;2022-12-07T01:25:08;19.33;;;12.10;;
317;SDS011;146;53.448;10.228;2022-12-07T01:27:36;13.13;;;9.73;;
317;SDS011;146;53.448;10.228;2022-12-07T01:30:05;11.90;;;10.13;;
317;SDS011;146;53.448;10.228;2022-12-07T01:32:33;13.17;;;10.33;;
317;SDS011;146;53.448;10.228;2022-12-07T01:35:00;11.47;;;9.80;;
317;SDS011;146;53.448;10.228;2022-12-07T01:37:27;11.17;;;9.97;;
317;SDS011;146;53.448;10.228;2022-12-07T01:39:55;16.33;;;9.33;;
317;SDS011;146;53.448;10.228;2022-12-07T01:42:22;14.47;;;9.20;;
317;SDS011;146;53.448;10.228;2022-12-07T01:48:04;10.27;;;9.00;;
317;SDS011;146;53.448;10.228;2022-12-07T01:50:32;10.50;;;9.43;;
317;SDS011;146;53.448;10.228;2022-12-07T01:53:01;14.03;;;9.70;;
317;SDS011;146;53.448;10.228;2022-12-07T01:55:32;14.47;;;9.53;;
317;SDS011;146;53.448;10.228;2022-12-07T01:58:00;10.23;;;8.10;;
317;SDS011;146;53.448;10.228;2022-12-07T02:00:27;13.10;;;8.30;;
317;SDS011;146;53.448;10.228;2022-12-07T02:02:55;10.23;;;7.80;;
317;SDS011;146;53.448;10.228;2022-12-07T02:05:26;9.23;;;7.53;;
317;SDS011;146;53.448;10.228;2022-12-07T02:07:55;10.87;;;8.37;;
317;SDS011;146;53.448;10.228;2022-12-07T02:10:23;12.70;;;8.70;;
317;SDS011;146;53.448;10.228;2022-12-07T02:12:54;12.63;;;8.33;;
317;SDS011;146;53.448;10.228;2022-12-07T02:15:25;12.43;;;9.40;;
317;SDS011;146;53.448;10.228;2022-12-07T02:18:05;12.17;;;9.37;;
317;SDS011;146;53.448;10.228;2022-12-07T02:20:41;11.60;;;8.93;;
317;SDS011;146;53.448;10.228;2022-12-07T02:23:17;11.23;;;8.93;;
317;SDS011;146;53.448;10.228;2022-12-07T02:29:10;10.73;;;8.37;;
317;SDS011;146;53.448;10.228;2022-12-07T02:31:43;9.17;;;7.53;;
317;SDS011;146;53.448;10.228;2022-12-07T02:34:14;10.10;;;7.17;;
317;SDS011;146;53.448;10.228;2022-12-07T02:36:51;12.20;;;7.50;;
317;SDS011;146;53.448;10.228;2022-12-07T02:39:23;8.47;;;6.60;;
317;SDS011;146;53.448;10.228;2022-12-07T02:41:55;10.30;;;7.23;;
317;SDS011;146;53.448;10.228;2022-12-07T02:44:29;10.27;;;7.27;;
317;SDS011;146;53.448;10.228;2022-12-07T02:46:58;8.83;;;6.50;;
317;SDS011;146;53.448;10.228;2022-12-07T02:49:27;8.80;;;6.00;;
317;SDS011;146;53.448;10.228;2022-12-07T02:51:56;16.07;;;7.30;;
317;SDS011;146;53.448;10.228;2022-12-07T02:54:23;12.93;;;6.30;;
317;SDS011;146;53.448;10.228;2022-12-07T02:56:50;14.90;;;6.40;;
317;SDS011;146;53.448;10.228;2022-12-07T02:59:25;11.70;;;7.00;;
317;SDS011;146;53.448;10.228;2022-12-07T03:02:06;9.23;;;6.00;;
317;SDS011;146;53.448;10.228;2022-12-07T03:04:43;9.67;;;6.10;;
317;SDS011;146;53.448;10.228;2022-12-07T03:07:18;9.07;;;6.40;;
317;SDS011;146;53.448;10.228;2022-12-07T03:09:53;9.83;;;6.60;;
317;SDS011;146;53.448;10.228;2022-12-07T03:12:28;7.10;;;5.10;;
317;SDS011;146;53.448;10.228;2022-12-07T03:15:02;6.00;;;5.00;;
317;SDS011;146;53.448;10.228;2022-12-07T03:17:34;7.17;;;5.50;;
317;SDS011;146;53.448;10.228;2022-12-07T03:20:05;6.67;;;4.83;;
317;SDS011;146;53.448;10.228;2022-12-07T03:22:35;7.10;;;4.50;;
317;SDS011;146;53.448;10.228;2022-12-07T03:25:08;9.93;;;5.70;;
317;SDS011;146;53.448;10.228;2022-12-07T03:27:38;5.70;;;4.40;;
317;SDS011;146;53.448;10.228;2022-12-07T03:30:12;8.57;;;4.53;;
317;SDS011;146;53.448;10.228;2022-12-07T03:32:42;5.53;;;4.57;;
317;SDS011;146;53.448;10.228;2022-12-07T03:35:12;7.13;;;5.40;;
317;SDS011;146;53.448;10.228;2022-12-07T03:37:45;6.87;;;4.37;;
317;SDS011;146;53.448;10.228;2022-12-07T03:40:16;5.27;;;4.30;;
317;SDS011;146;53.448;10.228;2022-12-07T03:42:48;6.17;;;4.03;;
317;SDS011;146;53.448;10.228;2022-12-07T03:45:19;8.07;;;4.70;;
317;SDS011;146;53.448;10.228;2022-12-07T03:47:54;4.23;;;3.50;;
317;SDS011;146;53.448;10.228;2022-12-07T03:50:31;5.30;;;3.17;;
317;SDS011;146;53.448;10.228;2022-12-07T03:53:05;6.37;;;4.07;;
317;SDS011;146;53.448;10.228;2022-12-07T03:55:37;4.53;;;3.77;;
317;SDS011;146;53.448;10.228;2022-12-07T03:58:09;4.93;;;4.43;;
317;SDS011;146;53.448;10.228;2022-12-07T04:00:39;5.60;;;5.20;;
317;SDS011;146;53.448;10.228;2022-12-07T04:03:07;6.10;;;5.60;;
317;SDS011;146;53.448;10.228;2022-12-07T04:05:34;4.20;;;3.77;;
317;SDS011;146;53.448;10.228;2022-12-07T04:08:01;5.10;;;3.60;;
317;SDS011;146;53.448;10.228;2022-12-07T04:10:29;3.80;;;2.97;;
317;SDS011;146;53.448;10.228;2022-12-07T04:12:55;6.10;;;4.37;;
317;SDS011;146;53.448;10.228;2022-12-07T04:15:22;5.30;;;4.60;;
317;SDS011;146;53.448;10.228;2022-12-07T04:17:51;3.77;;;3.43;;
317;SDS011;146;53.448;10.228;2022-12-07T04:20:18;3.60;;;3.30;;
317;SDS011;146;53.448;10.228;2022-12-07T04:22:46;6.00;;;3.43;;
317;SDS011;146;53.448;10.228;2022-12-07T04:25:12;6.60;;;4.07;;
317;SDS011;146;53.448;10.228;2022-12-07T04:27:39;3.40;;;2.77;;
317;SDS011;146;53.448;10.228;2022-12-07T04:30:07;3.23;;;2.93;;
317;SDS011;146;53.448;10.228;2022-12-07T04:32:34;4.23;;;3.20;;
317;SDS011;146;53.448;10.228;2022-12-07T04:35:02;3.90;;;3.50;;
317;SDS011;146;53.448;10.228;2022-12-07T04:37:31;5.13;;;4.37;;
317;SDS011;146;53.448;10.228;2022-12-07T04:39:58;3.78;;;3.47;;
317;SDS011;146;53.448;10.228;2022-12-07T04:42:24;3.07;;;2.67;;
317;SDS011;146;53.448;10.228;2022-12-07T04:44:51;4.30;;;3.57;;
317;SDS011;146;53.448;10.228;2022-12-07T04:47:18;4.40;;;3.00;;
317;SDS011;146;53.448;10.228;2022-12-07T04:49:45;10.40;;;3.80;;
317;SDS011;146;53.448;10.228;2022-12-07T04:52:13;3.73;;;3.00;;
317;SDS011;146;53.448;10.228;2022-12-07T04:54:40;4.30;;;2.60;;
317;SDS011;146;53.448;10.228;2022-12-07T04:57:07;3.15;;;2.85;;
317;SDS011;146;53.448;10.228;2022-12-07T04:59:34;4.87;;;2.90;;
317;SDS011;146;53.448;10.228;2022-12-07T05:02:00;3.33;;;2.90;;
317;SDS011;146;53.448;10.228;2022-12-07T05:04:27;4.70;;;3.60;;
317;SDS011;146;53.448;10.228;2022-12-07T05:06:54;2.70;;;2.37;;
317;SDS011;146;53.448;10.228;2022-12-07T05:09:22;3.67;;;2.88;;
317;SDS011;146;53.448;10.228;2022-12-07T05:11:49;3.63;;;2.80;;
317;SDS011;146;53.448;10.228;2022-12-07T05:14:16;3.07;;;2.77;;
317;SDS011;146;53.448;10.228;2022-12-07T05:16:45;7.03;;;2.83;;
317;SDS011;146;53.448;10.228;2022-12-07T05:19:14;7.20;;;3.43;;
317;SDS011;146;53.448;10.228;2022-12-07T05:21:41;3.90;;;3.00;;
317;SDS011;146;53.448;10.228;2022-12-07T05:24:10;5.90;;;2.20;;
317;SDS011;146;53.448;10.228;2022-12-07T05:26:39;3.77;;;3.10;;
317;SDS011;146;53.448;10.228;2022-12-07T05:29:07;3.28;;;2.42;;
317;SDS011;146;53.448;10.228;2022-12-07T05:31:36;1.80;;;1.70;;
317;SDS011;146;53.448;10.228;2022-12-07T05:34:03;2.57;;;2.37;;
317;SDS011;146;53.448;10.228;2022-12-07T05:36:29;2.43;;;2.20;;
317;SDS011;146;53.448;10.228;2022-12-07T05:38:57;2.40;;;2.20;;
317;SDS011;146;53.448;10.228;2022-12-07T05:41:24;3.90;;;2.93;;
317;SDS011;146;53.448;10.228;2022-12-07T05:44:09;3.90;;;2.60;;
317;SDS011;146;53.448;10.228;2022-12-07T05:46:36;2.72;;;2.53;;
317;SDS011;146;53.448;10.228;2022-12-07T05:49:03;2.58;;;2.28;;
317;SDS011;146;53.448;10.228;2022-12-07T05:51:30;3.67;;;2.45;;
317;SDS011;146;53.448;10.228;2022-12-07T05:53:56;3.17;;;2.50;;
317;SDS011;146;53.448;10.228;2022-12-07T05:56:23;3.50;;;2.90;;
317;SDS011;146;53.448;10.228;2022-12-07T05:58:51;2.67;;;2.47;;
317;SDS011;146;53.448;10.228;2022-12-07T06:01:42;3.53;;;2.50;;
317;SDS011;146;53.448;10.228;2022-12-07T06:04:09;2.83;;;2.55;;
317;SDS011;146;53.448;10.228;2022-12-07T06:06:36;2.67;;;2.47;;
317;SDS011;146;53.448;10.228;2022-12-07T06:09:04;2.60;;;2.40;;
317;SDS011;146;53.448;10.228;2022-12-07T06:11:31;2.30;;;2.17;;
317;SDS011;146;53.448;10.228;2022-12-07T06:14:15;2.90;;;2.53;;
317;SDS011;146;53.448;10.228;2022-12-07T06:16:43;3.23;;;2.93;;
317;SDS011;146;53.448;10.228;2022-12-07T06:19:10;3.20;;;2.83;;
317;SDS011;146;53.448;10.228;2022-12-07T06:21:37;3.50;;;2.70;;
317;SDS011;146;53.448;10.228;2022-12-07T06:24:04;4.33;;;2.50;;
317;SDS011;146;53.448;10.228;2022-12-07T06:26:31;2.20;;;2.00;;
317;SDS011;146;53.448;10.228;2022-12-07T06:28:58;3.33;;;3.03;;
317;SDS011;146;53.448;10.228;2022-12-07T06:31:25;2.57;;;2.37;;
317;SDS011;146;53.448;10.228;2022-12-07T06:33:57;3.23;;;2.93;;
317;SDS011;146;53.448;10.228;2022-12-07T06:36:25;3.90;;;3.50;;
317;SDS011;146;53.448;10.228;2022-12-07T06:38:51;4.60;;;3.57;;
317;SDS011;146;53.448;10.228;2022-12-07T06:41:18;3.67;;;2.70;;
317;SDS011;146;53.448;10.228;2022-12-07T06:43:45;3.70;;;3.40;;
317;SDS011;146;53.448;10.228;2022-12-07T06:46:12;7.33;;;6.60;;
317;SDS011;146;53.448;10.228;2022-12-07T06:48:39;8.80;;;7.70;;
317;SDS011;146;53.448;10.228;2022-12-07T06:51:08;9.60;;;6.40;;
317;SDS011;146;53.448;10.228;2022-12-07T06:53:35;5.33;;;4.80;;
317;SDS011;146;53.448;10.228;2022-12-07T06:56:03;3.87;;;3.57;;
317;SDS011;146;53.448;10.228;2022-12-07T06:58:31;5.20;;;4.10;;
317;SDS011;146;53.448;10.228;2022-12-07T07:00:57;3.83;;;3.53;;
317;SDS011;146;53.448;10.228;2022-12-07T07:03:24;3.50;;;3.20;;
317;SDS011;146;53.448;10.228;2022-12-07T07:05:51;4.33;;;4.00;;
317;SDS011;146;53.448;10.228;2022-12-07T07:08:19;4.90;;;4.50;;
317;SDS011;146;53.448;10.228;2022-12-07T07:10:46;3.53;;;3.33;;
317;SDS011;146;53.448;10.228;2022-12-07T07:13:13;4.10;;;3.50;;
317;SDS011;146;53.448;10.228;2022-12-07T07:15:40;2.83;;;2.63;;
317;SDS011;146;53.448;10.228;2022-12-07T07:18:07;4.05;;;3.30;;
317;SDS011;146;53.448;10.228;2022-12-07T07:20:34;6.20;;;5.63;;
317;SDS011;146;53.448;10.228;2022-12-07T07:23:01;3.63;;;3.40;;
317;SDS011;146;53.448;10.228;2022-12-07T07:25:29;2.90;;;2.60;;
317;SDS011;146;53.448;10.228;2022-12-07T07:27:57;4.43;;;2.57;;
317;SDS011;146;53.448;10.228;2022-12-07T07:30:24;3.30;;;3.00;;
317;SDS011;146;53.448;10.228;2022-12-07T07:32:51;2.90;;;2.70;;
317;SDS011;146;53.448;10.228;2022-12-07T07:35:21;3.97;;;2.50;;
317;SDS011;146;53.448;10.228;2022-12-07T07:37:48;4.63;;;2.90;;
317;SDS011;146;53.448;10.228;2022-12-07T07:40:15;2.97;;;2.70;;
317;SDS011;146;53.448;10.228;2022-12-07T07:42:43;3.03;;;2.73;;
317;SDS011;146;53.448;10.228;2022-12-07T07:45:12;2.63;;;2.40;;
317;SDS011;146;53.448;10.228;2022-12-07T07:47:39;2.57;;;2.37;;
317;SDS011;146;53.448;10.228;2022-12-07T07:50:06;3.07;;;2.47;;
317;SDS011;146;53.448;10.228;2022-12-07T07:52:34;2.30;;;2.20;;
317;SDS011;146;53.448;10.228;2022-12-07T07:55:00;3.08;;;2.45;;
317;SDS011;146;53.448;10.228;2022-12-07T07:57:27;3.07;;;2.10;;
317;SDS011;146;53.448;10.228;2022-12-07T07:59:56;2.07;;;1.97;;
317;SDS011;146;53.448;10.228;2022-12-07T08:02:22;3.00;;;2.37;;
317;SDS011;146;53.448;10.228;2022-12-07T08:04:49;2.73;;;1.60;;
317;SDS011;146;53.448;10.228;2022-12-07T08:07:16;2.43;;;2.23;;
317;SDS011;146;53.448;10.228;2022-12-07T08:09:43;2.33;;;2.13;;
317;SDS011;146;53.448;10.228;2022-12-07T08:12:10;2.83;;;2.47;;
317;SDS011;146;53.448;10.228;2022-12-07T08:14:36;2.60;;;1.90;;
317;SDS011;146;53.448;10.228;2022-12-07T08:17:05;3.67;;;2.03;;
317;SDS011;146;53.448;10.228;2022-12-07T08:19:32;2.40;;;1.80;;
317;SDS011;146;53.448;10.228;2022-12-07T08:21:59;2.90;;;2.70;;
317;SDS011;146;53.448;10.228;2022-12-07T08:24:26;3.40;;;3.10;;
317;SDS011;146;53.448;10.228;2022-12-07T08:26:53;2.90;;;2.07;;
317;SDS011;146;53.448;10.228;2022-12-07T08:29:20;2.17;;;1.87;;
317;SDS011;146;53.448;10.228;2022-12-07T08:31:47;3.57;;;2.40;;
317;SDS011;146;53.448;10.228;2022-12-07T08:34:15;2.77;;;2.57;;
317;SDS011;146;53.448;10.228;2022-12-07T08:36:42;2.47;;;2.30;;
317;SDS011;146;53.448;10.228;2022-12-07T08:39:09;3.10;;;2.80;;
317;SDS011;146;53.448;10.228;2022-12-07T08:41:36;3.63;;;2.50;;
317;SDS011;146;53.448;10.228;2022-12-07T08:44:02;3.80;;;2.83;;
317;SDS011;146;53.448;10.228;2022-12-07T08:46:30;2.73;;;2.53;;
317;SDS011;146;53.448;10.228;2022-12-07T08:49:03;2.50;;;2.30;;
317;SDS011;146;53.448;10.228;2022-12-07T08:51:34;2.40;;;2.13;;
317;SDS011;146;53.448;10.228;2022-12-07T08:54:02;2.60;;;2.40;;
317;SDS011;146;53.448;10.228;2022-12-07T08:56:31;2.33;;;2.13;;
317;SDS011;146;53.448;10.228;2022-12-07T08:58:58;4.50;;;3.77;;
317;SDS011;146;53.448;10.228;2022-12-07T09:01:25;2.57;;;1.90;;
317;SDS011;146;53.448;10.228;2022-12-07T09:03:52;4.53;;;2.50;;
317;SDS011;146;53.448;10.228;2022-12-07T09:06:19;3.33;;;2.30;;
317;SDS011;146;53.448;10.228;2022-12-07T09:08:47;3.00;;;2.47;;
317;SDS011;146;53.448;10.228;2022-12-07T09:11:17;2.57;;;2.37;;
317;SDS011;146;53.448;10.228;2022-12-07T09:13:44;3.33;;;2.50;;
317;SDS011;146;53.448;10.228;2022-12-07T09:16:11;2.80;;;2.30;;
317;SDS011;146;53.448;10.228;2022-12-07T09:18:37;3.87;;;3.50;;
317;SDS011;146;53.448;10.228;2022-12-07T09:21:04;2.50;;;2.30;;
317;SDS011;146;53.448;10.228;2022-12-07T09:23:31;2.80;;;2.53;;
317;SDS011;146;53.448;10.228;2022-12-07T09:26:00;3.53;;;1.73;;
317;SDS011;146;53.448;10.228;2022-12-07T09:28:27;2.83;;;2.17;;
317;SDS011;146;53.448;10.228;2022-12-07T09:30:54;3.70;;;2.53;;
317;SDS011;146;53.448;10.228;2022-12-07T09:33:21;2.33;;;2.03;;
317;SDS011;146;53.448;10.228;2022-12-07T09:35:48;4.07;;;1.87;;
317;SDS011;146;53.448;10.228;2022-12-07T09:38:16;2.30;;;2.10;;
317;SDS011;146;53.448;10.228;2022-12-07T09:40:44;2.30;;;1.50;;
317;SDS011;146;53.448;10.228;2022-12-07T09:43:14;3.40;;;2.83;;
317;SDS011;146;53.448;10.228;2022-12-07T09:45:43;2.43;;;2.10;;
317;SDS011;146;53.448;10.228;2022-12-07T09:48:13;2.50;;;2.00;;
317;SDS011;146;53.448;10.228;2022-12-07T09:50:44;2.00;;;1.80;;
317;SDS011;146;53.448;10.228;2022-12-07T09:53:13;3.00;;;1.70;;
317;SDS011;146;53.448;10.228;2022-12-07T09:55:45;3.53;;;2.40;;
317;SDS011;146;53.448;10.228;2022-12-07T09:58:16;2.80;;;2.33;;
317;SDS011;146;53.448;10.228;2022-12-07T10:00:46;2.47;;;2.00;;
317;SDS011;146;53.448;10.228;2022-12-07T10:03:14;2.27;;;1.50;;
317;SDS011;146;53.448;10.228;2022-12-07T10:05:42;2.10;;;1.80;;
317;SDS011;146;53.448;10.228;2022-12-07T10:08:12;2.57;;;1.57;;
317;SDS011;146;53.448;10.228;2022-12-07T10:10:40;4.97;;;1.20;;
317;SDS011;146;53.448;10.228;2022-12-07T10:13:08;1.80;;;1.37;;
317;SDS011;146;53.448;10.228;2022-12-07T10:15:42;4.83;;;1.90;;
317;SDS011;146;53.448;10.228;2022-12-07T10:18:17;4.73;;;3.00;;
317;SDS011;146;53.448;10.228;2022-12-07T10:21:03;1.67;;;1.53;;
317;SDS011;146;53.448;10.228;2022-12-07T10:23:39;1.53;;;1.40;;
317;SDS011;146;53.448;10.228;2022-12-07T10:26:19;1.87;;;1.70;;
317;SDS011;146;53.448;10.228;2022-12-07T10:28:52;2.30;;;1.13;;
317;SDS011;146;53.448;10.228;2022-12-07T10:31:21;4.60;;;1.93;;
317;SDS011;146;53.448;10.228;2022-12-07T10:33:49;3.63;;;1.93;;
317;SDS011;146;53.448;10.228;2022-12-07T10:36:19;2.60;;;1.13;;
317;SDS011;146;53.448;10.228;2022-12-07T10:38:49;1.27;;;1.13;;
317;SDS011;146;53.448;10.228;2022-12-07T10:41:18;1.63;;;1.20;;
317;SDS011;146;53.448;10.228;2022-12-07T10:43:46;1.93;;;1.23;;
317;SDS011;146;53.448;10.228;2022-12-07T10:49:29;1.30;;;1.07;;
317;SDS011;146;53.448;10.228;2022-12-07T10:52:24;2.60;;;1.43;;
317;SDS011;146;53.448;10.228;2022-12-07T10:55:06;1.97;;;0.97;;
317;SDS011;146;53.448;10.228;2022-12-07T10:57:43;1.80;;;1.33;;
317;SDS011;146;53.448;10.228;2022-12-07T11:00:21;2.57;;;1.17;;
317;SDS011;146;53.448;10.228;2022-12-07T11:05:53;0.93;;;0.90;;
317;SDS011;146;53.448;10.228;2022-12-07T11:08:32;4.20;;;0.87;;
317;SDS011;146;53.448;10.228;2022-12-07T11:11:11;1.80;;;0.83;;
317;SDS011;146;53.448;10.228;2022-12-07T11:13:44;1.27;;;0.80;;
317;SDS011;146;53.448;10.228;2022-12-07T11:16:21;1.63;;;0.83;;
317;SDS011;146;53.448;10.228;2022-12-07T11:19:00;0.83;;;0.83;;
317;SDS011;146;53.448;10.228;2022-12-07T11:21:42;2.33;;;0.90;;
317;SDS011;146;53.448;10.228;2022-12-07T11:24:15;1.63;;;1.17;;
317;SDS011;146;53.448;10.228;2022-12-07T11:26:48;1.90;;;1.07;;
317;SDS011;146;53.448;10.228;2022-12-07T11:29:28;2.73;;;1.13;;
317;SDS011;146;53.448;10.228;2022-12-07T11:32:13;2.77;;;0.97;;
317;SDS011;146;53.448;10.228;2022-12-07T11:34:48;0.93;;;0.90;;
317;SDS011;146;53.448;10.228;2022-12-07T11:37:25;2.63;;;0.90;;
317;SDS011;146;53.448;10.228;2022-12-07T11:39:57;1.70;;;1.20;;
317;SDS011;146;53.448;10.228;2022-12-07T11:42:29;1.43;;;0.80;;
317;SDS011;146;53.448;10.228;2022-12-07T11:45:00;4.30;;;1.20;;
317;SDS011;146;53.448;10.228;2022-12-07T11:47:30;3.53;;;1.10;;
317;SDS011;146;53.448;10.228;2022-12-07T11:50:05;2.60;;;1.77;;
317;SDS011;146;53.448;10.228;2022-12-07T11:52:53;1.60;;;0.93;;
317;SDS011;146;53.448;10.228;2022-12-07T11:55:24;2.00;;;1.50;;
317;SDS011;146;53.448;10.228;2022-12-07T11:57:58;0.90;;;0.80;;
317;SDS011;146;53.448;10.228;2022-12-07T12:00:30;2.20;;;1.23;;
317;SDS011;146;53.448;10.228;2022-12-07T12:02:59;3.77;;;1.33;;
317;SDS011;146;53.448;10.228;2022-12-07T12:05:29;3.70;;;1.00;;
317;SDS011;146;53.448;10.228;2022-12-07T12:08:01;1.93;;;1.10;;
317;SDS011;146;53.448;10.228;2022-12-07T12:10:38;3.87;;;1.70;;
317;SDS011;146;53.448;10.228;2022-12-07T12:13:20;2.10;;;1.03;;
317;SDS011;146;53.448;10.228;2022-12-07T12:19:23;1.23;;;1.03;;
317;SDS011;146;53.448;10.228;2022-12-07T12:21:57;2.97;;;1.37;;
317;SDS011;146;53.448;10.228;2022-12-07T12:24:32;1.80;;;0.90;;
317;SDS011;146;53.448;10.228;2022-12-07T12:27:02;2.63;;;0.97;;
317;SDS011;146;53.448;10.228;2022-12-07T12:29:31;2.70;;;0.97;;
317;SDS011;146;53.448;10.228;2022-12-07T12:32:05;4.40;;;1.43;;
317;SDS011;146;53.448;10.228;2022-12-07T12:34:38;3.50;;;1.07;;
317;SDS011;146;53.448;10.228;2022-12-07T12:49:30;3.27;;;1.10;;
317;SDS011;146;53.448;10.228;2022-12-07T12:52:27;2.83;;;1.10;;
317;SDS011;146;53.448;10.228;2022-12-07T12:55:15;5.50;;;1.70;;
317;SDS011;146;53.448;10.228;2022-12-07T12:57:46;5.03;;;1.20;;
317;SDS011;146;53.448;10.228;2022-12-07T13:00:35;1.77;;;0.90;;
317;SDS011;146;53.448;10.228;2022-12-07T13:03:02;4.23;;;1.30;;
317;SDS011;146;53.448;10.228;2022-12-07T13:05:30;5.07;;;1.07;;
317;SDS011;146;53.448;10.228;2022-12-07T13:07:58;3.50;;;1.13;;
317;SDS011;146;53.448;10.228;2022-12-07T13:10:33;5.23;;;1.43;;
317;SDS011;146;53.448;10.228;2022-12-07T13:13:25;6.53;;;1.07;;
317;SDS011;146;53.448;10.228;2022-12-07T13:25:05;1.93;;;1.00;;
317;SDS011;146;53.448;10.228;2022-12-07T13:27:36;2.00;;;1.23;;
317;SDS011;146;53.448;10.228;2022-12-07T13:30:09;3.50;;;1.47;;
317;SDS011;146;53.448;10.228;2022-12-07T13:32:40;2.30;;;1.13;;
317;SDS011;146;53.448;10.228;2022-12-07T13:37:56;1.27;;;1.17;;
317;SDS011;146;53.448;10.228;2022-12-07T13:40:23;3.90;;;0.93;;
317;SDS011;146;53.448;10.228;2022-12-07T13:42:56;3.43;;;0.87;;
317;SDS011;146;53.448;10.228;2022-12-07T13:45:25;4.80;;;0.90;;
317;SDS011;146;53.448;10.228;2022-12-07T13:48:14;2.93;;;1.43;;
317;SDS011;146;53.448;10.228;2022-12-07T13:50:48;1.47;;;1.20;;
317;SDS011;146;53.448;10.228;2022-12-07T13:53:20;6.30;;;1.03;;
317;SDS011;146;53.448;10.228;2022-12-07T13:55:48;2.70;;;1.03;;
317;SDS011;146;53.448;10.228;2022-12-07T13:58:15;1.63;;;0.93;;
317;SDS011;146;53.448;10.228;2022-12-07T14:00:43;4.40;;;1.00;;
317;SDS011;146;53.448;10.228;2022-12-07T14:03:27;7.30;;;1.63;;
317;SDS011;146;53.448;10.228;2022-12-07T14:06:03;2.27;;;1.60;;
317;SDS011;146;53.448;10.228;2022-12-07T14:08:34;1.30;;;1.20;;
317;SDS011;146;53.448;10.228;2022-12-07T14:11:00;1.67;;;1.57;;
317;SDS011;146;53.448;10.228;2022-12-07T14:13:28;5.60;;;1.30;;
317;SDS011;146;53.448;10.228;2022-12-07T14:15:59;4.67;;;2.30;;
317;SDS011;146;53.448;10.228;2022-12-07T14:18:26;2.37;;;1.07;;
317;SDS011;146;53.448;10.228;2022-12-07T14:21:05;3.53;;;1.50;;
317;SDS011;146;53.448;10.228;2022-12-07T14:23:41;2.87;;;1.47;;
317;SDS011;146;53.448;10.228;2022-12-07T14:26:10;4.93;;;1.57;;
317;SDS011;146;53.448;10.228;2022-12-07T14:28:39;2.93;;;2.00;;
317;SDS011;146;53.448;10.228;2022-12-07T14:31:08;1.83;;;1.70;;
317;SDS011;146;53.448;10.228;2022-12-07T14:33:37;2.83;;;1.80;;
317;SDS011;146;53.448;10.228;2022-12-07T14:36:05;2.87;;;2.27;;
317;SDS011;146;53.448;10.228;2022-12-07T14:38:34;2.57;;;1.77;;
317;SDS011;146;53.448;10.228;2022-12-07T14:41:03;1.53;;;1.30;;
317;SDS011;146;53.448;10.228;2022-12-07T14:43:48;3.80;;;1.37;;
317;SDS011;146;53.448;10.228;2022-12-07T14:46:15;3.30;;;1.20;;
317;SDS011;146;53.448;10.228;2022-12-07T14:48:41;2.93;;;1.43;;
317;SDS011;146;53.448;10.228;2022-12-07T14:51:09;2.00;;;1.20;;
317;SDS011;146;53.448;10.228;2022-12-07T14:53:39;1.93;;;1.00;;
317;SDS011;146;53.448;10.228;2022-12-07T14:56:10;2.40;;;1.03;;
317;SDS011;146;53.448;10.228;2022-12-07T14:58:37;1.83;;;1.00;;
317;SDS011;146;53.448;10.228;2022-12-07T15:01:04;2.50;;;1.10;;
317;SDS011;146;53.448;10.228;2022-12-07T15:03:31;5.93;;;1.17;;
317;SDS011;146;53.448;10.228;2022-12-07T15:05:59;1.70;;;0.90;;
317;SDS011;146;53.448;10.228;2022-12-07T15:08:26;0.97;;;0.97;;
317;SDS011;146;53.448;10.228;2022-12-07T15:10:53;2.30;;;1.40;;
317;SDS011;146;53.448;10.228;2022-12-07T15:13:21;2.30;;;1.27;;
317;SDS011;146;53.448;10.228;2022-12-07T15:16:07;2.20;;;1.33;;
317;SDS011;146;53.448;10.228;2022-12-07T15:18:36;2.10;;;1.47;;
317;SDS011;146;53.448;10.228;2022-12-07T15:21:03;2.40;;;1.13;;
317;SDS011;146;53.448;10.228;2022-12-07T15:23:30;4.10;;;1.70;;
317;SDS011;146;53.448;10.228;2022-12-07T15:25:57;3.60;;;2.10;;
317;SDS011;146;53.448;10.228;2022-12-07T15:28:25;1.50;;;1.40;;
317;SDS011;146;53.448;10.228;2022-12-07T15:30:52;6.97;;;2.00;;
317;SDS011;146;53.448;10.228;2022-12-07T15:33:19;2.93;;;1.93;;
317;SDS011;146;53.448;10.228;2022-12-07T15:35:46;6.80;;;2.50;;
317;SDS011;146;53.448;10.228;2022-12-07T15:38:13;1.70;;;1.60;;
317;SDS011;146;53.448;10.228;2022-12-07T15:40:40;2.20;;;1.70;;
317;SDS011;146;53.448;10.228;2022-12-07T15:43:08;1.67;;;1.33;;
317;SDS011;146;53.448;10.228;2022-12-07T15:45:56;2.60;;;1.50;;
317;SDS011;146;53.448;10.228;2022-12-07T15:48:22;2.37;;;1.70;;
317;SDS011;146;53.448;10.228;2022-12-07T15:50:49;6.37;;;1.60;;
317;SDS011;146;53.448;10.228;2022-12-07T15:53:16;1.70;;;1.17;;
317;SDS011;146;53.448;10.228;2022-12-07T15:55:43;1.70;;;1.20;;
317;SDS011;146;53.448;10.228;2022-12-07T15:58:10;2.63;;;1.43;;
317;SDS011;146;53.448;10.228;2022-12-07T16:00:36;4.20;;;1.63;;
317;SDS011;146;53.448;10.228;2022-12-07T16:03:05;9.03;;;2.20;;
317;SDS011;146;53.448;10.228;2022-12-07T16:05:31;3.37;;;1.17;;
317;SDS011;146;53.448;10.228;2022-12-07T16:07:59;3.13;;;1.40;;
317;SDS011;146;53.448;10.228;2022-12-07T16:10:26;4.10;;;1.87;;
317;SDS011;146;53.448;10.228;2022-12-07T16:12:52;3.70;;;1.87;;
317;SDS011;146;53.448;10.228;2022-12-07T16:15:19;3.23;;;2.00;;
317;SDS011;146;53.448;10.228;2022-12-07T16:17:46;4.80;;;2.43;;
317;SDS011;146;53.448;10.228;2022-12-07T16:20:14;2.80;;;2.60;;
317;SDS011;146;53.448;10.228;2022-12-07T16:22:41;3.93;;;3.13;;
317;SDS011;146;53.448;10.228;2022-12-07T16:25:08;3.90;;;3.00;;